sensor_id;sensor_type;location;lat;lon;timestamp;pressure;altitude;pressure_sealevel;temperature;humidity
72308;BME280;60257;42.638;23.376;2023-01-04T00:01:05;95508.13;;;8.50;72.58
72308;BME280;60257;42.638;23.376;2023-01-04T00:03:31;95516.34;;;8.50;72.80
72308;BME280;60257;42.638;23.376;2023-01-04T00:05:59;95501.63;;;8.37;72.95
72308;BME280;60257;42.638;23.376;2023-01-04T00:08:25;95516.72;;;8.35;73.47
72308;BME280;60257;42.638;23.376;2023-01-04T00:10:51;95522.38;;;8.38;73.47
72308;BME280;60257;42.638;23.376;2023-01-04T00:13:17;95528.34;;;8.40;73.69
72308;BME280;60257;42.638;23.376;2023-01-04T00:15:42;95524.47;;;8.41;73.42
72308;BME280;60257;42.638;23.376;2023-01-04T00:18:08;95521.25;;;8.39;73.31
72308;BME280;60257;42.638;23.376;2023-01-04T00:20:33;95487.09;;;8.28;73.33
72308;BME280;60257;42.638;23.376;2023-01-04T00:22:58;95512.69;;;8.32;73.36
72308;BME280;60257;42.638;23.376;2023-01-04T00:25:24;95513.19;;;8.34;73.41
72308;BME280;60257;42.638;23.376;2023-01-04T00:27:50;95513.03;;;8.39;73.17
72308;BME280;60257;42.638;23.376;2023-01-04T00:30:16;95521.38;;;8.34;73.01
72308;BME280;60257;42.638;23.376;2023-01-04T00:32:42;95527.31;;;8.36;72.91
72308;BME280;60257;42.638;23.376;2023-01-04T00:35:08;95511.56;;;8.33;72.87
72308;BME280;60257;42.638;23.376;2023-01-04T00:37:34;95511.63;;;8.42;72.44
72308;BME280;60257;42.638;23.376;2023-01-04T00:39:59;95528.50;;;8.44;72.50
72308;BME280;60257;42.638;23.376;2023-01-04T00:42:25;95537.19;;;8.46;72.39
72308;BME280;60257;42.638;23.376;2023-01-04T00:44:50;95520.63;;;8.42;72.31
72308;BME280;60257;42.638;23.376;2023-01-04T00:47:16;95514.97;;;8.39;72.16
72308;BME280;60257;42.638;23.376;2023-01-04T00:49:41;95514.41;;;8.28;72.49
72308;BME280;60257;42.638;23.376;2023-01-04T00:52:07;95521.75;;;8.41;72.07
72308;BME280;60257;42.638;23.376;2023-01-04T00:54:32;95511.06;;;8.31;72.36
72308;BME280;60257;42.638;23.376;2023-01-04T00:56:58;95534.00;;;8.30;72.74
72308;BME280;60257;42.638;23.376;2023-01-04T00:59:25;95532.84;;;8.23;72.76
72308;BME280;60257;42.638;23.376;2023-01-04T01:01:52;95532.72;;;8.28;72.29
72308;BME280;60257;42.638;23.376;2023-01-04T01:04:20;95531.72;;;8.24;72.74
72308;BME280;60257;42.638;23.376;2023-01-04T01:06:46;95525.59;;;8.18;72.65
72308;BME280;60257;42.638;23.376;2023-01-04T01:09:12;95532.66;;;8.19;72.79
72308;BME280;60257;42.638;23.376;2023-01-04T01:11:38;95526.13;;;8.06;72.93
72308;BME280;60257;42.638;23.376;2023-01-04T01:14:05;95540.13;;;8.05;73.14
72308;BME280;60257;42.638;23.376;2023-01-04T01:16:30;95551.78;;;8.19;72.70
72308;BME280;60257;42.638;23.376;2023-01-04T01:18:56;95555.25;;;8.11;72.73
72308;BME280;60257;42.638;23.376;2023-01-04T01:21:24;95545.25;;;8.06;72.79
72308;BME280;60257;42.638;23.376;2023-01-04T01:23:50;95555.06;;;8.07;72.83
72308;BME280;60257;42.638;23.376;2023-01-04T01:26:18;95560.81;;;8.06;72.92
72308;BME280;60257;42.638;23.376;2023-01-04T01:28:44;95559.63;;;8.12;72.69
72308;BME280;60257;42.638;23.376;2023-01-04T01:31:15;95546.69;;;8.04;73.20
72308;BME280;60257;42.638;23.376;2023-01-04T01:33:45;95541.09;;;8.09;72.88
72308;BME280;60257;42.638;23.376;2023-01-04T01:36:13;95545.50;;;7.96;73.70
72308;BME280;60257;42.638;23.376;2023-01-04T01:38:39;95535.31;;;7.88;73.84
72308;BME280;60257;42.638;23.376;2023-01-04T01:41:07;95540.53;;;7.98;73.31
72308;BME280;60257;42.638;23.376;2023-01-04T01:43:59;95538.13;;;7.97;73.42
72308;BME280;60257;42.638;23.376;2023-01-04T01:46:40;95534.16;;;8.03;73.09
72308;BME280;60257;42.638;23.376;2023-01-04T01:49:30;95539.72;;;7.98;73.09
72308;BME280;60257;42.638;23.376;2023-01-04T01:51:58;95538.94;;;7.97;73.16
72308;BME280;60257;42.638;23.376;2023-01-04T01:54:29;95545.63;;;8.13;72.89
72308;BME280;60257;42.638;23.376;2023-01-04T01:56:59;95531.91;;;8.05;73.30
72308;BME280;60257;42.638;23.376;2023-01-04T01:59:27;95537.88;;;8.07;73.32
72308;BME280;60257;42.638;23.376;2023-01-04T02:01:54;95525.16;;;8.02;73.25
72308;BME280;60257;42.638;23.376;2023-01-04T02:04:19;95532.53;;;8.02;73.22
72308;BME280;60257;42.638;23.376;2023-01-04T02:06:48;95526.38;;;7.96;73.83
72308;BME280;60257;42.638;23.376;2023-01-04T02:09:16;95515.56;;;7.91;73.72
72308;BME280;60257;42.638;23.376;2023-01-04T02:11:41;95523.16;;;7.94;73.55
72308;BME280;60257;42.638;23.376;2023-01-04T02:14:08;95532.31;;;7.98;73.53
72308;BME280;60257;42.638;23.376;2023-01-04T02:27:35;95529.88;;;7.74;74.24
72308;BME280;60257;42.638;23.376;2023-01-04T02:38:24;95527.50;;;7.59;75.00
72308;BME280;60257;42.638;23.376;2023-01-04T02:43:39;95519.94;;;7.56;75.18
72308;BME280;60257;42.638;23.376;2023-01-04T02:46:34;95514.56;;;7.51;75.44
72308;BME280;60257;42.638;23.376;2023-01-04T02:49:02;95508.25;;;7.42;75.81
72308;BME280;60257;42.638;23.376;2023-01-04T02:51:46;95519.97;;;7.43;76.13
72308;BME280;60257;42.638;23.376;2023-01-04T02:54:22;95520.06;;;7.38;75.98
72308;BME280;60257;42.638;23.376;2023-01-04T02:57:02;95517.63;;;7.36;76.10
72308;BME280;60257;42.638;23.376;2023-01-04T03:02:28;95521.06;;;7.28;76.80
72308;BME280;60257;42.638;23.376;2023-01-04T03:08:38;95523.03;;;7.27;76.79
72308;BME280;60257;42.638;23.376;2023-01-04T03:11:11;95526.34;;;7.24;76.85
72308;BME280;60257;42.638;23.376;2023-01-04T03:14:18;95525.97;;;7.17;77.29
72308;BME280;60257;42.638;23.376;2023-01-04T03:16:46;95522.53;;;7.12;76.88
72308;BME280;60257;42.638;23.376;2023-01-04T03:19:14;95516.75;;;7.13;77.01
72308;BME280;60257;42.638;23.376;2023-01-04T03:22:02;95528.88;;;7.07;77.31
72308;BME280;60257;42.638;23.376;2023-01-04T03:24:30;95517.88;;;6.99;77.39
72308;BME280;60257;42.638;23.376;2023-01-04T03:27:17;95525.97;;;7.04;77.25
72308;BME280;60257;42.638;23.376;2023-01-04T03:30:06;95533.94;;;7.00;77.46
72308;BME280;60257;42.638;23.376;2023-01-04T03:33:05;95532.13;;;6.95;77.80
72308;BME280;60257;42.638;23.376;2023-01-04T03:38:55;95515.66;;;6.87;77.82
72308;BME280;60257;42.638;23.376;2023-01-04T03:41:47;95524.66;;;6.87;78.11
72308;BME280;60257;42.638;23.376;2023-01-04T03:50:59;95542.31;;;6.90;78.11
72308;BME280;60257;42.638;23.376;2023-01-04T03:53:27;95531.50;;;6.85;78.30
72308;BME280;60257;42.638;23.376;2023-01-04T03:55:55;95525.44;;;6.74;78.41
72308;BME280;60257;42.638;23.376;2023-01-04T03:58:22;95531.69;;;6.75;78.40
72308;BME280;60257;42.638;23.376;2023-01-04T04:00:49;95551.41;;;6.72;78.73
72308;BME280;60257;42.638;23.376;2023-01-04T04:03:14;95545.44;;;6.70;78.68
72308;BME280;60257;42.638;23.376;2023-01-04T04:05:42;95547.16;;;6.66;78.90
72308;BME280;60257;42.638;23.376;2023-01-04T04:08:27;95551.47;;;6.67;78.93
72308;BME280;60257;42.638;23.376;2023-01-04T04:10:59;95548.16;;;6.70;78.86
72308;BME280;60257;42.638;23.376;2023-01-04T04:13:47;95546.66;;;6.77;78.61
72308;BME280;60257;42.638;23.376;2023-01-04T04:16:13;95554.34;;;6.89;78.16
72308;BME280;60257;42.638;23.376;2023-01-04T04:18:38;95556.25;;;7.02;78.02
72308;BME280;60257;42.638;23.376;2023-01-04T04:21:04;95557.38;;;7.01;77.88
72308;BME280;60257;42.638;23.376;2023-01-04T04:23:29;95555.16;;;7.03;77.82
72308;BME280;60257;42.638;23.376;2023-01-04T04:25:55;95560.09;;;7.01;77.68
72308;BME280;60257;42.638;23.376;2023-01-04T04:28:20;95562.22;;;7.04;77.37
72308;BME280;60257;42.638;23.376;2023-01-04T04:30:49;95557.88;;;7.03;77.23
72308;BME280;60257;42.638;23.376;2023-01-04T04:33:15;95557.25;;;7.06;76.94
72308;BME280;60257;42.638;23.376;2023-01-04T04:35:40;95553.03;;;7.00;77.11
72308;BME280;60257;42.638;23.376;2023-01-04T04:38:06;95570.41;;;7.04;76.84
72308;BME280;60257;42.638;23.376;2023-01-04T04:40:32;95564.34;;;7.07;76.77
72308;BME280;60257;42.638;23.376;2023-01-04T04:43:16;95566.56;;;7.05;76.88
72308;BME280;60257;42.638;23.376;2023-01-04T04:45:41;95568.38;;;7.10;76.82
72308;BME280;60257;42.638;23.376;2023-01-04T04:48:07;95574.34;;;7.12;76.73
72308;BME280;60257;42.638;23.376;2023-01-04T04:50:32;95572.81;;;7.06;76.78
72308;BME280;60257;42.638;23.376;2023-01-04T04:52:58;95566.88;;;7.04;76.93
72308;BME280;60257;42.638;23.376;2023-01-04T04:55:23;95575.25;;;7.07;77.08
72308;BME280;60257;42.638;23.376;2023-01-04T04:57:49;95577.56;;;7.00;77.05
72308;BME280;60257;42.638;23.376;2023-01-04T05:00:15;95578.50;;;7.09;76.98
72308;BME280;60257;42.638;23.376;2023-01-04T05:02:40;95579.69;;;7.17;76.65
72308;BME280;60257;42.638;23.376;2023-01-04T05:05:06;95572.81;;;7.06;76.76
72308;BME280;60257;42.638;23.376;2023-01-04T05:07:32;95575.16;;;7.12;76.82
72308;BME280;60257;42.638;23.376;2023-01-04T05:09:57;95584.47;;;7.11;76.91
72308;BME280;60257;42.638;23.376;2023-01-04T05:12:23;95587.38;;;7.15;76.85
72308;BME280;60257;42.638;23.376;2023-01-04T05:15:07;95588.41;;;7.19;76.72
72308;BME280;60257;42.638;23.376;2023-01-04T05:17:32;95573.63;;;7.06;77.06
72308;BME280;60257;42.638;23.376;2023-01-04T05:19:58;95577.91;;;7.12;77.02
72308;BME280;60257;42.638;23.376;2023-01-04T05:22:23;95586.78;;;7.04;77.16
72308;BME280;60257;42.638;23.376;2023-01-04T05:24:48;95586.66;;;7.09;76.81
72308;BME280;60257;42.638;23.376;2023-01-04T05:27:14;95595.38;;;7.11;77.05
72308;BME280;60257;42.638;23.376;2023-01-04T05:29:39;95582.91;;;7.05;77.18
72308;BME280;60257;42.638;23.376;2023-01-04T05:32:23;95604.72;;;7.05;77.15
72308;BME280;60257;42.638;23.376;2023-01-04T05:34:49;95589.88;;;6.97;77.40
72308;BME280;60257;42.638;23.376;2023-01-04T05:37:14;95599.09;;;7.02;77.48
72308;BME280;60257;42.638;23.376;2023-01-04T05:39:40;95598.69;;;7.08;76.97
72308;BME280;60257;42.638;23.376;2023-01-04T05:42:05;95601.31;;;7.13;76.87
72308;BME280;60257;42.638;23.376;2023-01-04T05:44:49;95613.66;;;7.11;77.17
72308;BME280;60257;42.638;23.376;2023-01-04T05:47:14;95605.53;;;7.06;77.22
72308;BME280;60257;42.638;23.376;2023-01-04T05:49:39;95607.69;;;7.09;76.81
72308;BME280;60257;42.638;23.376;2023-01-04T05:52:05;95618.59;;;7.09;76.79
72308;BME280;60257;42.638;23.376;2023-01-04T05:54:30;95553.59;;;6.70;76.28
72308;BME280;60257;42.638;23.376;2023-01-04T05:56:56;95605.66;;;7.14;76.31
72308;BME280;60257;42.638;23.376;2023-01-04T05:59:21;95595.84;;;7.13;76.00
72308;BME280;60257;42.638;23.376;2023-01-04T06:01:47;95611.41;;;7.13;76.22
72308;BME280;60257;42.638;23.376;2023-01-04T06:04:12;95602.00;;;7.05;76.19
72308;BME280;60257;42.638;23.376;2023-01-04T06:06:38;95586.16;;;6.93;76.45
72308;BME280;60257;42.638;23.376;2023-01-04T06:09:03;95603.91;;;7.05;76.31
72308;BME280;60257;42.638;23.376;2023-01-04T06:11:28;95598.47;;;7.05;76.29
72308;BME280;60257;42.638;23.376;2023-01-04T06:13:54;95607.09;;;7.12;76.01
72308;BME280;60257;42.638;23.376;2023-01-04T06:16:19;95604.34;;;7.12;76.13
72308;BME280;60257;42.638;23.376;2023-01-04T06:18:45;95604.16;;;7.22;75.65
72308;BME280;60257;42.638;23.376;2023-01-04T06:21:10;95605.56;;;7.19;75.68
72308;BME280;60257;42.638;23.376;2023-01-04T06:23:36;95616.91;;;7.26;75.12
72308;BME280;60257;42.638;23.376;2023-01-04T06:26:01;95580.69;;;7.07;75.04
72308;BME280;60257;42.638;23.376;2023-01-04T06:28:28;95605.97;;;7.26;75.12
72308;BME280;60257;42.638;23.376;2023-01-04T06:30:53;95616.56;;;7.28;74.92
72308;BME280;60257;42.638;23.376;2023-01-04T06:33:19;95627.41;;;7.33;74.79
72308;BME280;60257;42.638;23.376;2023-01-04T06:35:52;95617.59;;;7.32;74.78
72308;BME280;60257;42.638;23.376;2023-01-04T06:38:18;95620.44;;;7.41;74.31
72308;BME280;60257;42.638;23.376;2023-01-04T06:40:43;95630.03;;;7.38;74.29
72308;BME280;60257;42.638;23.376;2023-01-04T06:43:09;95630.53;;;7.40;73.81
72308;BME280;60257;42.638;23.376;2023-01-04T06:45:34;95630.13;;;7.47;73.61
72308;BME280;60257;42.638;23.376;2023-01-04T06:48:00;95626.28;;;7.34;73.54
72308;BME280;60257;42.638;23.376;2023-01-04T06:50:26;95630.00;;;7.52;73.21
72308;BME280;60257;42.638;23.376;2023-01-04T06:52:51;95623.03;;;7.46;73.45
72308;BME280;60257;42.638;23.376;2023-01-04T06:55:16;95620.31;;;7.32;74.05
72308;BME280;60257;42.638;23.376;2023-01-04T06:57:42;95628.91;;;7.39;73.98
72308;BME280;60257;42.638;23.376;2023-01-04T07:00:08;95631.53;;;7.44;73.64
72308;BME280;60257;42.638;23.376;2023-01-04T07:02:34;95624.38;;;7.48;73.39
72308;BME280;60257;42.638;23.376;2023-01-04T07:04:59;95638.53;;;7.50;73.51
72308;BME280;60257;42.638;23.376;2023-01-04T07:07:25;95628.91;;;7.53;73.19
72308;BME280;60257;42.638;23.376;2023-01-04T07:09:51;95634.16;;;7.63;73.33
72308;BME280;60257;42.638;23.376;2023-01-04T07:12:16;95636.06;;;7.76;72.74
72308;BME280;60257;42.638;23.376;2023-01-04T07:14:42;95635.25;;;7.76;72.42
72308;BME280;60257;42.638;23.376;2023-01-04T07:17:07;95634.47;;;7.61;72.56
72308;BME280;60257;42.638;23.376;2023-01-04T07:19:32;95637.50;;;7.60;72.29
72308;BME280;60257;42.638;23.376;2023-01-04T07:21:58;95645.50;;;7.56;72.54
72308;BME280;60257;42.638;23.376;2023-01-04T07:24:24;95653.97;;;7.55;72.54
72308;BME280;60257;42.638;23.376;2023-01-04T07:26:50;95652.56;;;7.57;72.47
72308;BME280;60257;42.638;23.376;2023-01-04T07:29:15;95649.22;;;7.60;72.35
72308;BME280;60257;42.638;23.376;2023-01-04T07:31:51;95659.22;;;7.51;72.82
72308;BME280;60257;42.638;23.376;2023-01-04T07:34:19;95675.31;;;7.53;72.92
72308;BME280;60257;42.638;23.376;2023-01-04T07:36:46;95666.63;;;7.64;72.82
72308;BME280;60257;42.638;23.376;2023-01-04T07:39:12;95661.97;;;7.65;72.24
72308;BME280;60257;42.638;23.376;2023-01-04T07:41:38;95660.75;;;7.71;72.26
72308;BME280;60257;42.638;23.376;2023-01-04T07:44:04;95654.66;;;7.88;71.94
72308;BME280;60257;42.638;23.376;2023-01-04T07:46:31;95648.97;;;7.98;70.97
72308;BME280;60257;42.638;23.376;2023-01-04T07:48:56;95656.38;;;7.97;71.13
72308;BME280;60257;42.638;23.376;2023-01-04T07:51:22;95655.34;;;7.93;71.51
72308;BME280;60257;42.638;23.376;2023-01-04T07:53:47;95653.75;;;7.92;72.00
72308;BME280;60257;42.638;23.376;2023-01-04T07:56:13;95636.44;;;7.83;70.84
72308;BME280;60257;42.638;23.376;2023-01-04T07:58:38;95648.97;;;7.98;70.98
72308;BME280;60257;42.638;23.376;2023-01-04T08:01:08;95672.75;;;8.11;70.95
72308;BME280;60257;42.638;23.376;2023-01-04T08:03:34;95652.50;;;8.12;70.32
72308;BME280;60257;42.638;23.376;2023-01-04T08:06:07;95660.59;;;8.03;70.60
72308;BME280;60257;42.638;23.376;2023-01-04T08:08:33;95671.50;;;8.17;70.47
72308;BME280;60257;42.638;23.376;2023-01-04T08:11:16;95665.50;;;8.29;70.35
72308;BME280;60257;42.638;23.376;2023-01-04T08:13:43;95660.88;;;8.16;70.24
72308;BME280;60257;42.638;23.376;2023-01-04T08:18:43;95660.69;;;7.98;70.33
72308;BME280;60257;42.638;23.376;2023-01-04T08:21:08;95678.53;;;7.96;70.74
72308;BME280;60257;42.638;23.376;2023-01-04T08:23:35;95682.66;;;7.93;70.89
72308;BME280;60257;42.638;23.376;2023-01-04T08:26:10;95682.66;;;8.07;69.99
72308;BME280;60257;42.638;23.376;2023-01-04T08:28:38;95677.31;;;8.02;69.91
72308;BME280;60257;42.638;23.376;2023-01-04T08:31:22;95674.34;;;7.98;70.36
72308;BME280;60257;42.638;23.376;2023-01-04T08:33:49;95682.56;;;7.98;70.50
72308;BME280;60257;42.638;23.376;2023-01-04T08:36:26;95684.41;;;7.89;70.71
72308;BME280;60257;42.638;23.376;2023-01-04T08:38:54;95683.97;;;7.82;70.76
72308;BME280;60257;42.638;23.376;2023-01-04T08:41:20;95684.50;;;7.70;71.16
72308;BME280;60257;42.638;23.376;2023-01-04T08:43:46;95677.41;;;7.97;70.53
72308;BME280;60257;42.638;23.376;2023-01-04T08:46:12;95680.41;;;8.09;70.14
72308;BME280;60257;42.638;23.376;2023-01-04T08:48:39;95690.31;;;8.19;69.62
72308;BME280;60257;42.638;23.376;2023-01-04T08:51:10;95691.22;;;8.14;70.06
72308;BME280;60257;42.638;23.376;2023-01-04T08:53:36;95685.16;;;8.17;69.93
72308;BME280;60257;42.638;23.376;2023-01-04T08:56:02;95691.13;;;8.05;70.30
72308;BME280;60257;42.638;23.376;2023-01-04T08:58:30;95697.41;;;8.20;71.39
72308;BME280;60257;42.638;23.376;2023-01-04T09:01:03;95681.59;;;8.30;69.67
72308;BME280;60257;42.638;23.376;2023-01-04T09:03:29;95677.91;;;8.13;69.87
72308;BME280;60257;42.638;23.376;2023-01-04T09:08:29;95684.13;;;8.40;69.22
72308;BME280;60257;42.638;23.376;2023-01-04T09:10:55;95680.22;;;8.19;69.51
72308;BME280;60257;42.638;23.376;2023-01-04T09:13:20;95682.72;;;8.16;69.78
72308;BME280;60257;42.638;23.376;2023-01-04T09:15:45;95670.47;;;8.13;69.97
72308;BME280;60257;42.638;23.376;2023-01-04T09:18:11;95661.31;;;8.09;69.63
72308;BME280;60257;42.638;23.376;2023-01-04T09:20:36;95676.16;;;8.17;69.41
72308;BME280;60257;42.638;23.376;2023-01-04T09:23:02;95663.59;;;8.16;69.41
72308;BME280;60257;42.638;23.376;2023-01-04T09:25:28;95673.56;;;7.98;69.77
72308;BME280;60257;42.638;23.376;2023-01-04T09:27:53;95662.06;;;7.73;70.90
72308;BME280;60257;42.638;23.376;2023-01-04T09:30:18;95644.78;;;7.64;70.69
72308;BME280;60257;42.638;23.376;2023-01-04T09:32:44;95676.31;;;7.84;70.31
72308;BME280;60257;42.638;23.376;2023-01-04T09:35:09;95659.84;;;7.89;69.77
72308;BME280;60257;42.638;23.376;2023-01-04T09:37:36;95665.28;;;7.76;70.43
72308;BME280;60257;42.638;23.376;2023-01-04T09:40:02;95670.44;;;7.77;70.03
72308;BME280;60257;42.638;23.376;2023-01-04T09:42:31;95676.22;;;7.89;69.89
72308;BME280;60257;42.638;23.376;2023-01-04T09:45:27;95669.81;;;7.94;69.64
72308;BME280;60257;42.638;23.376;2023-01-04T09:48:03;95651.22;;;7.82;69.82
72308;BME280;60257;42.638;23.376;2023-01-04T09:50:38;95665.41;;;7.70;69.90
72308;BME280;60257;42.638;23.376;2023-01-04T09:53:21;95663.38;;;7.76;69.65
72308;BME280;60257;42.638;23.376;2023-01-04T09:55:51;95644.25;;;7.76;69.62
72308;BME280;60257;42.638;23.376;2023-01-04T09:58:26;95658.38;;;7.92;69.07
72308;BME280;60257;42.638;23.376;2023-01-04T10:01:06;95662.34;;;7.86;69.49
72308;BME280;60257;42.638;23.376;2023-01-04T10:03:38;95651.31;;;7.91;69.19
72308;BME280;60257;42.638;23.376;2023-01-04T10:06:09;95662.38;;;7.72;69.96
72308;BME280;60257;42.638;23.376;2023-01-04T10:08:36;95660.72;;;7.85;70.01
72308;BME280;60257;42.638;23.376;2023-01-04T10:22:13;95654.22;;;8.08;68.87
72308;BME280;60257;42.638;23.376;2023-01-04T10:32:42;95654.31;;;8.17;69.00
72308;BME280;60257;42.638;23.376;2023-01-04T10:37:45;95653.19;;;8.31;68.61
72308;BME280;60257;42.638;23.376;2023-01-04T10:40:14;95650.13;;;8.33;68.55
72308;BME280;60257;42.638;23.376;2023-01-04T10:45:15;95659.44;;;8.32;68.46
72308;BME280;60257;42.638;23.376;2023-01-04T10:53:16;95658.88;;;8.07;69.59
72308;BME280;60257;42.638;23.376;2023-01-04T10:58:42;95643.75;;;8.24;69.29
72308;BME280;60257;42.638;23.376;2023-01-04T11:01:25;95640.25;;;8.09;69.48
72308;BME280;60257;42.638;23.376;2023-01-04T11:04:00;95645.81;;;8.18;69.62
72308;BME280;60257;42.638;23.376;2023-01-04T11:06:34;95644.69;;;8.05;69.82
72308;BME280;60257;42.638;23.376;2023-01-04T11:09:14;95641.56;;;8.12;69.63
72308;BME280;60257;42.638;23.376;2023-01-04T11:11:43;95652.81;;;8.10;69.98
72308;BME280;60257;42.638;23.376;2023-01-04T11:14:10;95645.81;;;8.18;69.84
72308;BME280;60257;42.638;23.376;2023-01-04T11:16:38;95629.66;;;8.30;69.80
72308;BME280;60257;42.638;23.376;2023-01-04T11:19:06;95625.94;;;8.26;69.31
72308;BME280;60257;42.638;23.376;2023-01-04T11:22:00;95632.94;;;8.32;69.58
72308;BME280;60257;42.638;23.376;2023-01-04T11:24:28;95630.78;;;8.29;69.62
72308;BME280;60257;42.638;23.376;2023-01-04T11:26:56;95622.88;;;8.41;68.84
72308;BME280;60257;42.638;23.376;2023-01-04T11:29:40;95614.91;;;8.31;68.95
72308;BME280;60257;42.638;23.376;2023-01-04T11:32:33;95613.47;;;7.98;70.30
72308;BME280;60257;42.638;23.376;2023-01-04T11:34:59;95606.16;;;7.71;70.96
72308;BME280;60257;42.638;23.376;2023-01-04T11:37:29;95608.16;;;7.79;70.80
72308;BME280;60257;42.638;23.376;2023-01-04T11:42:47;95605.22;;;7.76;71.04
72308;BME280;60257;42.638;23.376;2023-01-04T11:45:23;95613.63;;;7.79;70.71
72308;BME280;60257;42.638;23.376;2023-01-04T11:47:54;95602.16;;;7.91;70.56
72308;BME280;60257;42.638;23.376;2023-01-04T11:50:42;95598.94;;;7.89;70.61
72308;BME280;60257;42.638;23.376;2023-01-04T11:56:08;95563.69;;;7.65;70.68
72308;BME280;60257;42.638;23.376;2023-01-04T11:58:34;95586.94;;;7.62;71.04
72308;BME280;60257;42.638;23.376;2023-01-04T12:00:59;95597.94;;;7.71;71.17
72308;BME280;60257;42.638;23.376;2023-01-04T12:03:37;95596.16;;;7.66;71.10
72308;BME280;60257;42.638;23.376;2023-01-04T12:06:11;95597.97;;;7.57;71.39
72308;BME280;60257;42.638;23.376;2023-01-04T12:08:39;95585.75;;;7.55;71.36
72308;BME280;60257;42.638;23.376;2023-01-04T12:11:19;95596.06;;;7.58;71.36
72308;BME280;60257;42.638;23.376;2023-01-04T12:13:46;95589.41;;;7.50;71.60
72308;BME280;60257;42.638;23.376;2023-01-04T12:16:24;95588.78;;;7.53;71.69
72308;BME280;60257;42.638;23.376;2023-01-04T12:18:52;95599.47;;;7.63;71.79
72308;BME280;60257;42.638;23.376;2023-01-04T12:21:23;95592.66;;;7.74;71.64
72308;BME280;60257;42.638;23.376;2023-01-04T12:23:51;95588.09;;;7.84;71.11
72308;BME280;60257;42.638;23.376;2023-01-04T12:26:17;95595.41;;;7.88;70.85
72308;BME280;60257;42.638;23.376;2023-01-04T12:28:49;95587.53;;;8.09;70.38
72308;BME280;60257;42.638;23.376;2023-01-04T12:33:44;95589.75;;;8.21;69.80
72308;BME280;60257;42.638;23.376;2023-01-04T12:44:00;95576.09;;;8.65;68.11
72308;BME280;60257;42.638;23.376;2023-01-04T12:54:51;95564.44;;;8.15;69.46
72308;BME280;60257;42.638;23.376;2023-01-04T12:57:36;95570.19;;;8.27;69.44
72308;BME280;60257;42.638;23.376;2023-01-04T13:00:11;95566.53;;;8.32;69.31
72308;BME280;60257;42.638;23.376;2023-01-04T13:02:45;95571.38;;;8.35;68.99
72308;BME280;60257;42.638;23.376;2023-01-04T13:07:48;95562.91;;;8.45;68.70
72308;BME280;60257;42.638;23.376;2023-01-04T13:15:26;95544.88;;;8.35;69.06
72308;BME280;60257;42.638;23.376;2023-01-04T13:17:56;95557.03;;;8.52;68.81
72308;BME280;60257;42.638;23.376;2023-01-04T13:20:23;95561.28;;;8.44;68.69
72308;BME280;60257;42.638;23.376;2023-01-04T13:22:55;95562.31;;;8.48;69.00
72308;BME280;60257;42.638;23.376;2023-01-04T13:25:23;95564.09;;;8.53;68.72
72308;BME280;60257;42.638;23.376;2023-01-04T13:28:01;95573.09;;;8.53;68.75
72308;BME280;60257;42.638;23.376;2023-01-04T13:30:36;95570.50;;;8.48;68.95
72308;BME280;60257;42.638;23.376;2023-01-04T13:33:19;95567.09;;;8.42;69.17
72308;BME280;60257;42.638;23.376;2023-01-04T13:36:07;95579.22;;;8.50;69.48
72308;BME280;60257;42.638;23.376;2023-01-04T13:38:34;95577.66;;;8.58;69.00
72308;BME280;60257;42.638;23.376;2023-01-04T13:41:05;95580.56;;;8.61;69.06
72308;BME280;60257;42.638;23.376;2023-01-04T13:43:56;95576.16;;;8.52;69.23
72308;BME280;60257;42.638;23.376;2023-01-04T13:46:26;95582.25;;;8.48;69.09
72308;BME280;60257;42.638;23.376;2023-01-04T13:48:58;95578.91;;;8.52;68.99
72308;BME280;60257;42.638;23.376;2023-01-04T13:51:26;95586.47;;;8.55;68.96
72308;BME280;60257;42.638;23.376;2023-01-04T13:54:00;95569.41;;;8.49;69.11
72308;BME280;60257;42.638;23.376;2023-01-04T13:56:28;95588.53;;;8.49;68.97
72308;BME280;60257;42.638;23.376;2023-01-04T13:58:54;95574.72;;;8.32;69.31
72308;BME280;60257;42.638;23.376;2023-01-04T14:04:00;95572.63;;;8.15;70.04
72308;BME280;60257;42.638;23.376;2023-01-04T14:06:30;95585.13;;;8.30;69.91
72308;BME280;60257;42.638;23.376;2023-01-04T14:09:12;95584.56;;;8.33;69.92
72308;BME280;60257;42.638;23.376;2023-01-04T14:11:40;95581.69;;;8.38;69.49
72308;BME280;60257;42.638;23.376;2023-01-04T14:24:53;95574.63;;;8.23;70.42
72308;BME280;60257;42.638;23.376;2023-01-04T14:27:33;95580.22;;;8.18;70.57
72308;BME280;60257;42.638;23.376;2023-01-04T14:30:12;95578.59;;;8.17;70.69
72308;BME280;60257;42.638;23.376;2023-01-04T14:32:38;95587.31;;;8.19;70.52
72308;BME280;60257;42.638;23.376;2023-01-04T14:35:05;95577.38;;;8.23;70.76
72308;BME280;60257;42.638;23.376;2023-01-04T14:37:35;95580.59;;;8.25;70.52
72308;BME280;60257;42.638;23.376;2023-01-04T14:40:00;95584.31;;;8.29;70.19
72308;BME280;60257;42.638;23.376;2023-01-04T14:42:26;95589.75;;;8.21;70.85
72308;BME280;60257;42.638;23.376;2023-01-04T14:44:55;95579.66;;;8.30;70.51
72308;BME280;60257;42.638;23.376;2023-01-04T14:47:20;95577.38;;;8.23;70.49
72308;BME280;60257;42.638;23.376;2023-01-04T14:49:46;95582.81;;;8.23;70.90
72308;BME280;60257;42.638;23.376;2023-01-04T14:52:20;95580.41;;;8.22;70.94
72308;BME280;60257;42.638;23.376;2023-01-04T14:54:47;95574.56;;;8.15;71.03
72308;BME280;60257;42.638;23.376;2023-01-04T14:57:12;95583.25;;;8.17;70.87
72308;BME280;60257;42.638;23.376;2023-01-04T14:59:39;95577.59;;;8.13;71.37
72308;BME280;60257;42.638;23.376;2023-01-04T15:02:05;95574.69;;;8.09;71.09
72308;BME280;60257;42.638;23.376;2023-01-04T15:04:31;95590.06;;;8.05;71.22
72308;BME280;60257;42.638;23.376;2023-01-04T15:06:58;95584.50;;;8.10;71.15
72308;BME280;60257;42.638;23.376;2023-01-04T15:09:25;95582.69;;;8.06;71.34
72308;BME280;60257;42.638;23.376;2023-01-04T15:11:50;95592.03;;;8.05;71.58
72308;BME280;60257;42.638;23.376;2023-01-04T15:14:16;95579.09;;;7.97;71.76